sensor_id;sensor_type;location;lat;lon;timestamp;P1;durP1;ratioP1;P2;durP2;ratioP2
3647;SDS011;1840;48.892;15.312;2023-10-13T00:01:05;16.13;;;7.80;;
3647;SDS011;1840;48.892;15.312;2023-10-13T00:03:34;12.20;;;8.37;;
3647;SDS011;1840;48.892;15.312;2023-10-13T00:06:03;15.43;;;7.83;;
3647;SDS011;1840;48.892;15.312;2023-10-13T00:08:32;17.63;;;8.30;;
3647;SDS011;1840;48.892;15.312;2023-10-13T00:11:03;13.90;;;8.17;;
3647;SDS011;1840;48.892;15.312;2023-10-13T00:13:31;20.43;;;7.13;;
3647;SDS011;1840;48.892;15.312;2023-10-13T00:16:11;15.90;;;7.90;;
3647;SDS011;1840;48.892;15.312;2023-10-13T00:18:44;16.53;;;7.87;;
3647;SDS011;1840;48.892;15.312;2023-10-13T00:21:12;16.73;;;8.47;;
3647;SDS011;1840;48.892;15.312;2023-10-13T00:23:42;14.87;;;7.70;;
3647;SDS011;1840;48.892;15.312;2023-10-13T00:26:19;16.93;;;9.03;;
3647;SDS011;1840;48.892;15.312;2023-10-13T00:28:50;18.87;;;9.67;;
3647;SDS011;1840;48.892;15.312;2023-10-13T00:31:26;21.73;;;9.13;;
3647;SDS011;1840;48.892;15.312;2023-10-13T00:34:00;16.07;;;8.70;;
3647;SDS011;1840;48.892;15.312;2023-10-13T00:36:36;17.17;;;9.87;;
3647;SDS011;1840;48.892;15.312;2023-10-13T00:39:13;16.60;;;9.27;;
3647;SDS011;1840;48.892;15.312;2023-10-13T00:41:42;18.33;;;8.57;;
3647;SDS011;1840;48.892;15.312;2023-10-13T00:44:24;21.53;;;9.80;;
3647;SDS011;1840;48.892;15.312;2023-10-13T00:46:56;17.73;;;9.07;;
3647;SDS011;1840;48.892;15.312;2023-10-13T00:49:24;17.37;;;8.77;;
3647;SDS011;1840;48.892;15.312;2023-10-13T00:51:56;13.63;;;8.60;;
3647;SDS011;1840;48.892;15.312;2023-10-13T00:54:24;18.70;;;8.90;;
3647;SDS011;1840;48.892;15.312;2023-10-13T00:56:54;15.87;;;8.37;;
3647;SDS011;1840;48.892;15.312;2023-10-13T00:59:31;14.20;;;8.47;;
3647;SDS011;1840;48.892;15.312;2023-10-13T01:02:04;16.30;;;8.30;;
3647;SDS011;1840;48.892;15.312;2023-10-13T01:04:57;20.63;;;9.00;;
3647;SDS011;1840;48.892;15.312;2023-10-13T01:07:25;15.97;;;9.03;;
3647;SDS011;1840;48.892;15.312;2023-10-13T01:09:52;17.93;;;9.43;;
3647;SDS011;1840;48.892;15.312;2023-10-13T01:12:21;15.50;;;8.93;;
3647;SDS011;1840;48.892;15.312;2023-10-13T01:14:50;15.57;;;9.07;;
3647;SDS011;1840;48.892;15.312;2023-10-13T01:17:19;21.27;;;10.87;;
3647;SDS011;1840;48.892;15.312;2023-10-13T01:19:50;15.67;;;9.50;;
3647;SDS011;1840;48.892;15.312;2023-10-13T01:22:24;17.03;;;8.90;;
3647;SDS011;1840;48.892;15.312;2023-10-13T01:24:55;11.43;;;8.20;;
3647;SDS011;1840;48.892;15.312;2023-10-13T01:27:35;14.30;;;9.30;;
3647;SDS011;1840;48.892;15.312;2023-10-13T01:30:05;20.63;;;9.03;;
3647;SDS011;1840;48.892;15.312;2023-10-13T01:32:36;23.63;;;9.77;;
3647;SDS011;1840;48.892;15.312;2023-10-13T01:35:07;15.30;;;8.70;;
3647;SDS011;1840;48.892;15.312;2023-10-13T01:37:34;14.17;;;8.80;;
3647;SDS011;1840;48.892;15.312;2023-10-13T01:40:04;16.53;;;8.77;;
3647;SDS011;1840;48.892;15.312;2023-10-13T01:42:32;17.20;;;8.53;;
3647;SDS011;1840;48.892;15.312;2023-10-13T01:45:03;21.70;;;10.27;;
3647;SDS011;1840;48.892;15.312;2023-10-13T01:47:32;23.43;;;10.73;;
3647;SDS011;1840;48.892;15.312;2023-10-13T01:50:00;22.80;;;9.13;;
3647;SDS011;1840;48.892;15.312;2023-10-13T01:52:39;14.80;;;8.93;;
3647;SDS011;1840;48.892;15.312;2023-10-13T01:55:09;19.80;;;9.13;;
3647;SDS011;1840;48.892;15.312;2023-10-13T01:57:38;16.00;;;9.30;;
3647;SDS011;1840;48.892;15.312;2023-10-13T02:00:07;19.70;;;9.70;;
3647;SDS011;1840;48.892;15.312;2023-10-13T02:02:45;25.37;;;10.23;;
3647;SDS011;1840;48.892;15.312;2023-10-13T02:05:16;27.83;;;10.77;;
3647;SDS011;1840;48.892;15.312;2023-10-13T02:07:44;29.00;;;10.93;;
3647;SDS011;1840;48.892;15.312;2023-10-13T02:10:13;17.07;;;9.40;;
3647;SDS011;1840;48.892;15.312;2023-10-13T02:12:41;18.50;;;10.33;;
3647;SDS011;1840;48.892;15.312;2023-10-13T02:15:12;17.70;;;9.23;;
3647;SDS011;1840;48.892;15.312;2023-10-13T02:17:47;13.70;;;8.20;;
3647;SDS011;1840;48.892;15.312;2023-10-13T02:20:18;15.10;;;8.33;;
3647;SDS011;1840;48.892;15.312;2023-10-13T02:22:49;15.97;;;9.30;;
3647;SDS011;1840;48.892;15.312;2023-10-13T02:25:19;15.27;;;8.93;;
3647;SDS011;1840;48.892;15.312;2023-10-13T02:28:02;22.67;;;9.30;;
3647;SDS011;1840;48.892;15.312;2023-10-13T02:30:37;24.70;;;9.57;;
3647;SDS011;1840;48.892;15.312;2023-10-13T02:33:04;18.70;;;9.03;;
3647;SDS011;1840;48.892;15.312;2023-10-13T02:35:33;20.50;;;9.73;;
3647;SDS011;1840;48.892;15.312;2023-10-13T02:38:02;19.23;;;10.10;;
3647;SDS011;1840;48.892;15.312;2023-10-13T02:40:39;14.23;;;9.03;;
3647;SDS011;1840;48.892;15.312;2023-10-13T02:43:06;15.90;;;9.80;;
3647;SDS011;1840;48.892;15.312;2023-10-13T02:45:34;13.80;;;9.17;;
3647;SDS011;1840;48.892;15.312;2023-10-13T02:48:03;17.67;;;8.90;;
3647;SDS011;1840;48.892;15.312;2023-10-13T02:50:39;18.80;;;9.70;;
3647;SDS011;1840;48.892;15.312;2023-10-13T02:53:11;13.00;;;8.83;;
3647;SDS011;1840;48.892;15.312;2023-10-13T02:55:49;18.27;;;10.37;;
3647;SDS011;1840;48.892;15.312;2023-10-13T02:58:17;18.20;;;10.30;;
3647;SDS011;1840;48.892;15.312;2023-10-13T03:00:47;17.37;;;9.93;;
3647;SDS011;1840;48.892;15.312;2023-10-13T03:03:14;16.37;;;10.97;;
3647;SDS011;1840;48.892;15.312;2023-10-13T03:05:45;17.47;;;10.20;;
3647;SDS011;1840;48.892;15.312;2023-10-13T03:08:12;14.40;;;8.50;;
3647;SDS011;1840;48.892;15.312;2023-10-13T03:10:53;21.10;;;9.70;;
3647;SDS011;1840;48.892;15.312;2023-10-13T03:13:21;15.30;;;9.30;;
3647;SDS011;1840;48.892;15.312;2023-10-13T03:15:49;16.57;;;9.30;;
3647;SDS011;1840;48.892;15.312;2023-10-13T03:18:18;15.27;;;8.20;;
3647;SDS011;1840;48.892;15.312;2023-10-13T03:20:45;14.87;;;9.23;;
3647;SDS011;1840;48.892;15.312;2023-10-13T03:23:17;15.60;;;9.00;;
3647;SDS011;1840;48.892;15.312;2023-10-13T03:25:45;14.50;;;7.80;;
3647;SDS011;1840;48.892;15.312;2023-10-13T03:28:18;15.13;;;8.80;;
3647;SDS011;1840;48.892;15.312;2023-10-13T03:30:50;21.10;;;8.83;;
3647;SDS011;1840;48.892;15.312;2023-10-13T03:33:19;19.73;;;9.70;;
3647;SDS011;1840;48.892;15.312;2023-10-13T03:35:53;29.93;;;9.90;;
3647;SDS011;1840;48.892;15.312;2023-10-13T03:38:26;14.50;;;9.03;;
3647;SDS011;1840;48.892;15.312;2023-10-13T03:40:54;19.37;;;9.83;;
3647;SDS011;1840;48.892;15.312;2023-10-13T03:43:35;17.73;;;8.80;;
3647;SDS011;1840;48.892;15.312;2023-10-13T03:46:12;19.80;;;10.60;;
3647;SDS011;1840;48.892;15.312;2023-10-13T03:48:40;26.67;;;10.53;;
3647;SDS011;1840;48.892;15.312;2023-10-13T03:51:20;15.47;;;9.70;;
3647;SDS011;1840;48.892;15.312;2023-10-13T03:53:57;22.60;;;9.70;;
3647;SDS011;1840;48.892;15.312;2023-10-13T03:56:25;15.50;;;9.30;;
3647;SDS011;1840;48.892;15.312;2023-10-13T03:58:59;17.90;;;10.10;;
3647;SDS011;1840;48.892;15.312;2023-10-13T04:01:32;16.33;;;9.30;;
3647;SDS011;1840;48.892;15.312;2023-10-13T04:04:12;21.20;;;11.53;;
3647;SDS011;1840;48.892;15.312;2023-10-13T04:06:42;15.80;;;9.00;;
3647;SDS011;1840;48.892;15.312;2023-10-13T04:09:21;31.30;;;10.07;;
3647;SDS011;1840;48.892;15.312;2023-10-13T04:12:26;23.83;;;9.70;;
3647;SDS011;1840;48.892;15.312;2023-10-13T04:15:13;27.10;;;10.63;;
3647;SDS011;1840;48.892;15.312;2023-10-13T04:17:44;26.87;;;9.63;;
3647;SDS011;1840;48.892;15.312;2023-10-13T04:20:13;17.40;;;10.70;;
3647;SDS011;1840;48.892;15.312;2023-10-13T04:22:52;20.40;;;10.20;;
3647;SDS011;1840;48.892;15.312;2023-10-13T04:25:41;21.33;;;9.20;;
3647;SDS011;1840;48.892;15.312;2023-10-13T04:28:32;26.17;;;11.60;;
3647;SDS011;1840;48.892;15.312;2023-10-13T04:31:18;20.60;;;9.03;;
3647;SDS011;1840;48.892;15.312;2023-10-13T04:34:12;16.00;;;9.10;;
3647;SDS011;1840;48.892;15.312;2023-10-13T04:36:46;18.00;;;9.40;;
3647;SDS011;1840;48.892;15.312;2023-10-13T04:39:22;20.50;;;9.40;;
3647;SDS011;1840;48.892;15.312;2023-10-13T04:41:56;17.50;;;8.67;;
3647;SDS011;1840;48.892;15.312;2023-10-13T04:44:39;18.30;;;9.33;;
3647;SDS011;1840;48.892;15.312;2023-10-13T04:47:20;17.00;;;9.47;;
3647;SDS011;1840;48.892;15.312;2023-10-13T04:49:49;16.50;;;9.27;;
3647;SDS011;1840;48.892;15.312;2023-10-13T04:52:18;16.70;;;9.83;;
3647;SDS011;1840;48.892;15.312;2023-10-13T04:55:15;27.23;;;10.33;;
3647;SDS011;1840;48.892;15.312;2023-10-13T04:57:51;14.73;;;9.90;;
3647;SDS011;1840;48.892;15.312;2023-10-13T05:00:26;15.77;;;9.30;;
3647;SDS011;1840;48.892;15.312;2023-10-13T05:03:28;17.47;;;10.60;;
3647;SDS011;1840;48.892;15.312;2023-10-13T05:06:19;14.80;;;9.70;;
3647;SDS011;1840;48.892;15.312;2023-10-13T05:09:19;16.00;;;9.13;;
3647;SDS011;1840;48.892;15.312;2023-10-13T05:12:04;16.73;;;8.97;;
3647;SDS011;1840;48.892;15.312;2023-10-13T05:14:50;28.63;;;10.87;;
3647;SDS011;1840;48.892;15.312;2023-10-13T05:17:36;19.37;;;10.30;;
3647;SDS011;1840;48.892;15.312;2023-10-13T05:20:23;13.83;;;8.70;;
3647;SDS011;1840;48.892;15.312;2023-10-13T05:23:19;17.30;;;10.20;;
3647;SDS011;1840;48.892;15.312;2023-10-13T05:26:05;25.20;;;10.40;;
3647;SDS011;1840;48.892;15.312;2023-10-13T05:28:51;17.73;;;8.77;;
3647;SDS011;1840;48.892;15.312;2023-10-13T05:31:53;19.07;;;10.83;;
3647;SDS011;1840;48.892;15.312;2023-10-13T05:34:39;15.03;;;9.80;;
3647;SDS011;1840;48.892;15.312;2023-10-13T05:37:26;18.80;;;10.10;;
3647;SDS011;1840;48.892;15.312;2023-10-13T05:40:11;19.23;;;10.13;;
3647;SDS011;1840;48.892;15.312;2023-10-13T05:42:57;16.93;;;8.83;;
3647;SDS011;1840;48.892;15.312;2023-10-13T05:45:43;17.83;;;9.10;;
3647;SDS011;1840;48.892;15.312;2023-10-13T05:48:26;18.53;;;10.43;;
3647;SDS011;1840;48.892;15.312;2023-10-13T05:51:09;18.60;;;9.73;;
3647;SDS011;1840;48.892;15.312;2023-10-13T05:53:55;18.03;;;10.20;;
3647;SDS011;1840;48.892;15.312;2023-10-13T05:56:52;15.93;;;7.73;;
3647;SDS011;1840;48.892;15.312;2023-10-13T05:59:38;17.27;;;10.10;;
3647;SDS011;1840;48.892;15.312;2023-10-13T06:02:24;27.33;;;9.70;;
3647;SDS011;1840;48.892;15.312;2023-10-13T06:05:10;17.83;;;9.50;;
3647;SDS011;1840;48.892;15.312;2023-10-13T06:07:57;19.23;;;8.43;;
3647;SDS011;1840;48.892;15.312;2023-10-13T06:10:45;19.57;;;8.10;;
3647;SDS011;1840;48.892;15.312;2023-10-13T06:13:32;19.60;;;8.67;;
3647;SDS011;1840;48.892;15.312;2023-10-13T06:16:18;19.53;;;8.80;;
3647;SDS011;1840;48.892;15.312;2023-10-13T06:19:04;19.33;;;9.83;;
3647;SDS011;1840;48.892;15.312;2023-10-13T06:21:50;23.70;;;9.70;;
3647;SDS011;1840;48.892;15.312;2023-10-13T06:24:36;18.63;;;9.50;;
3647;SDS011;1840;48.892;15.312;2023-10-13T06:27:23;18.13;;;11.13;;
3647;SDS011;1840;48.892;15.312;2023-10-13T06:30:09;19.60;;;9.57;;
3647;SDS011;1840;48.892;15.312;2023-10-13T06:32:39;18.30;;;10.07;;
3647;SDS011;1840;48.892;15.312;2023-10-13T06:35:08;21.77;;;9.40;;
3647;SDS011;1840;48.892;15.312;2023-10-13T06:37:46;17.87;;;9.57;;
3647;SDS011;1840;48.892;15.312;2023-10-13T06:40:15;20.13;;;9.97;;
3647;SDS011;1840;48.892;15.312;2023-10-13T06:43:02;13.83;;;8.80;;
3647;SDS011;1840;48.892;15.312;2023-10-13T06:45:43;21.73;;;9.77;;
3647;SDS011;1840;48.892;15.312;2023-10-13T06:48:17;15.33;;;9.97;;
3647;SDS011;1840;48.892;15.312;2023-10-13T06:50:49;19.83;;;9.23;;
3647;SDS011;1840;48.892;15.312;2023-10-13T06:53:18;18.13;;;9.73;;
3647;SDS011;1840;48.892;15.312;2023-10-13T06:55:47;18.80;;;9.40;;
3647;SDS011;1840;48.892;15.312;2023-10-13T06:58:22;17.40;;;8.37;;
3647;SDS011;1840;48.892;15.312;2023-10-13T07:00:51;15.00;;;7.83;;
3647;SDS011;1840;48.892;15.312;2023-10-13T07:03:25;16.53;;;8.90;;
3647;SDS011;1840;48.892;15.312;2023-10-13T07:05:55;16.70;;;8.67;;
3647;SDS011;1840;48.892;15.312;2023-10-13T07:08:26;33.50;;;8.10;;
3647;SDS011;1840;48.892;15.312;2023-10-13T07:10:57;29.60;;;10.37;;
3647;SDS011;1840;48.892;15.312;2023-10-13T07:13:36;17.20;;;8.23;;
3647;SDS011;1840;48.892;15.312;2023-10-13T07:16:06;21.63;;;8.90;;
3647;SDS011;1840;48.892;15.312;2023-10-13T07:18:54;19.40;;;9.17;;
3647;SDS011;1840;48.892;15.312;2023-10-13T07:21:31;16.13;;;8.33;;
3647;SDS011;1840;48.892;15.312;2023-10-13T07:24:02;25.93;;;10.33;;
3647;SDS011;1840;48.892;15.312;2023-10-13T07:26:37;19.00;;;8.37;;
3647;SDS011;1840;48.892;15.312;2023-10-13T07:29:11;29.17;;;9.77;;
3647;SDS011;1840;48.892;15.312;2023-10-13T07:31:44;14.33;;;8.87;;
3647;SDS011;1840;48.892;15.312;2023-10-13T07:34:13;16.70;;;9.53;;
3647;SDS011;1840;48.892;15.312;2023-10-13T07:36:52;20.53;;;9.30;;
3647;SDS011;1840;48.892;15.312;2023-10-13T07:39:27;17.47;;;8.80;;
3647;SDS011;1840;48.892;15.312;2023-10-13T07:42:01;20.40;;;10.00;;
3647;SDS011;1840;48.892;15.312;2023-10-13T07:44:36;21.57;;;9.37;;
3647;SDS011;1840;48.892;15.312;2023-10-13T07:47:12;29.20;;;8.87;;
3647;SDS011;1840;48.892;15.312;2023-10-13T07:49:44;22.30;;;9.57;;
3647;SDS011;1840;48.892;15.312;2023-10-13T07:52:17;18.00;;;8.73;;
3647;SDS011;1840;48.892;15.312;2023-10-13T07:54:56;27.67;;;8.67;;
3647;SDS011;1840;48.892;15.312;2023-10-13T07:57:38;23.47;;;7.90;;
3647;SDS011;1840;48.892;15.312;2023-10-13T08:00:24;25.90;;;8.40;;
3647;SDS011;1840;48.892;15.312;2023-10-13T08:03:13;20.50;;;8.80;;
3647;SDS011;1840;48.892;15.312;2023-10-13T08:05:58;21.10;;;9.00;;
3647;SDS011;1840;48.892;15.312;2023-10-13T08:08:32;18.60;;;8.00;;
3647;SDS011;1840;48.892;15.312;2023-10-13T08:11:06;19.83;;;8.20;;
3647;SDS011;1840;48.892;15.312;2023-10-13T08:13:47;12.53;;;8.30;;
3647;SDS011;1840;48.892;15.312;2023-10-13T08:16:36;16.23;;;8.90;;
3647;SDS011;1840;48.892;15.312;2023-10-13T08:19:20;16.90;;;7.33;;
3647;SDS011;1840;48.892;15.312;2023-10-13T08:21:54;14.00;;;8.20;;
3647;SDS011;1840;48.892;15.312;2023-10-13T08:24:25;14.97;;;8.00;;
3647;SDS011;1840;48.892;15.312;2023-10-13T08:26:56;20.07;;;8.27;;
3647;SDS011;1840;48.892;15.312;2023-10-13T08:29:24;14.87;;;7.80;;
3647;SDS011;1840;48.892;15.312;2023-10-13T08:32:11;21.43;;;7.47;;
3647;SDS011;1840;48.892;15.312;2023-10-13T08:34:50;16.10;;;8.07;;
3647;SDS011;1840;48.892;15.312;2023-10-13T08:37:36;21.00;;;7.80;;
3647;SDS011;1840;48.892;15.312;2023-10-13T08:40:33;21.10;;;8.70;;
3647;SDS011;1840;48.892;15.312;2023-10-13T08:43:44;21.23;;;7.40;;
3647;SDS011;1840;48.892;15.312;2023-10-13T08:46:18;27.80;;;7.63;;
3647;SDS011;1840;48.892;15.312;2023-10-13T08:48:58;14.57;;;6.20;;
3647;SDS011;1840;48.892;15.312;2023-10-13T08:51:41;20.53;;;7.50;;
3647;SDS011;1840;48.892;15.312;2023-10-13T08:54:16;15.77;;;7.07;;
3647;SDS011;1840;48.892;15.312;2023-10-13T08:57:00;23.37;;;7.27;;
3647;SDS011;1840;48.892;15.312;2023-10-13T08:59:46;18.03;;;6.67;;
3647;SDS011;1840;48.892;15.312;2023-10-13T09:02:20;17.13;;;6.50;;
3647;SDS011;1840;48.892;15.312;2023-10-13T09:05:11;14.50;;;6.60;;
3647;SDS011;1840;48.892;15.312;2023-10-13T09:07:53;13.13;;;6.20;;
3647;SDS011;1840;48.892;15.312;2023-10-13T09:10:34;12.67;;;6.03;;
3647;SDS011;1840;48.892;15.312;2023-10-13T09:13:11;13.33;;;7.33;;
3647;SDS011;1840;48.892;15.312;2023-10-13T09:15:47;16.60;;;6.27;;
3647;SDS011;1840;48.892;15.312;2023-10-13T09:18:27;15.70;;;5.93;;
3647;SDS011;1840;48.892;15.312;2023-10-13T09:21:15;14.17;;;5.67;;
3647;SDS011;1840;48.892;15.312;2023-10-13T09:24:13;15.87;;;5.63;;
3647;SDS011;1840;48.892;15.312;2023-10-13T09:26:49;14.60;;;4.80;;
3647;SDS011;1840;48.892;15.312;2023-10-13T09:29:22;17.23;;;5.67;;
3647;SDS011;1840;48.892;15.312;2023-10-13T09:32:01;25.80;;;5.60;;
3647;SDS011;1840;48.892;15.312;2023-10-13T09:34:30;14.43;;;4.90;;
3647;SDS011;1840;48.892;15.312;2023-10-13T09:37:08;17.33;;;6.30;;
3647;SDS011;1840;48.892;15.312;2023-10-13T09:39:41;11.37;;;5.40;;
3647;SDS011;1840;48.892;15.312;2023-10-13T09:42:11;18.13;;;5.10;;
3647;SDS011;1840;48.892;15.312;2023-10-13T09:44:44;15.97;;;5.43;;
3647;SDS011;1840;48.892;15.312;2023-10-13T09:47:20;13.10;;;5.13;;
3647;SDS011;1840;48.892;15.312;2023-10-13T09:49:59;15.03;;;5.10;;
3647;SDS011;1840;48.892;15.312;2023-10-13T09:52:32;15.73;;;5.57;;
3647;SDS011;1840;48.892;15.312;2023-10-13T09:55:17;20.30;;;5.33;;
3647;SDS011;1840;48.892;15.312;2023-10-13T09:57:53;12.60;;;5.60;;
3647;SDS011;1840;48.892;15.312;2023-10-13T10:00:27;15.93;;;4.83;;
3647;SDS011;1840;48.892;15.312;2023-10-13T10:03:17;19.13;;;7.27;;
3647;SDS011;1840;48.892;15.312;2023-10-13T10:06:06;15.63;;;5.70;;
3647;SDS011;1840;48.892;15.312;2023-10-13T10:08:44;11.57;;;4.60;;
3647;SDS011;1840;48.892;15.312;2023-10-13T10:11:20;12.97;;;4.90;;
3647;SDS011;1840;48.892;15.312;2023-10-13T10:14:16;16.97;;;5.13;;
3647;SDS011;1840;48.892;15.312;2023-10-13T10:16:59;18.63;;;6.10;;
3647;SDS011;1840;48.892;15.312;2023-10-13T10:19:45;13.80;;;4.40;;
3647;SDS011;1840;48.892;15.312;2023-10-13T10:22:24;18.50;;;4.80;;
3647;SDS011;1840;48.892;15.312;2023-10-13T10:24:59;15.23;;;4.50;;
3647;SDS011;1840;48.892;15.312;2023-10-13T10:27:29;19.57;;;4.93;;
3647;SDS011;1840;48.892;15.312;2023-10-13T10:29:58;15.03;;;5.07;;
3647;SDS011;1840;48.892;15.312;2023-10-13T10:32:34;15.33;;;4.23;;
3647;SDS011;1840;48.892;15.312;2023-10-13T10:35:05;16.93;;;5.20;;
3647;SDS011;1840;48.892;15.312;2023-10-13T10:37:42;18.67;;;5.37;;
3647;SDS011;1840;48.892;15.312;2023-10-13T10:40:16;14.83;;;4.43;;
3647;SDS011;1840;48.892;15.312;2023-10-13T10:43:11;11.00;;;4.20;;
3647;SDS011;1840;48.892;15.312;2023-10-13T10:45:59;14.03;;;4.47;;
3647;SDS011;1840;48.892;15.312;2023-10-13T10:48:27;15.07;;;4.40;;
3647;SDS011;1840;48.892;15.312;2023-10-13T10:51:04;19.33;;;5.77;;
3647;SDS011;1840;48.892;15.312;2023-10-13T10:53:42;18.07;;;4.13;;
3647;SDS011;1840;48.892;15.312;2023-10-13T10:56:13;13.60;;;4.70;;
3647;SDS011;1840;48.892;15.312;2023-10-13T10:59:06;13.77;;;4.97;;
3647;SDS011;1840;48.892;15.312;2023-10-13T11:01:45;15.03;;;4.40;;
3647;SDS011;1840;48.892;15.312;2023-10-13T11:04:14;16.57;;;4.57;;
3647;SDS011;1840;48.892;15.312;2023-10-13T11:06:46;12.70;;;4.40;;
3647;SDS011;1840;48.892;15.312;2023-10-13T11:09:23;10.53;;;3.90;;
3647;SDS011;1840;48.892;15.312;2023-10-13T11:12:09;14.83;;;4.07;;
3647;SDS011;1840;48.892;15.312;2023-10-13T11:14:43;13.30;;;4.57;;
3647;SDS011;1840;48.892;15.312;2023-10-13T11:17:18;14.03;;;4.37;;
3647;SDS011;1840;48.892;15.312;2023-10-13T11:19:52;16.23;;;4.20;;
3647;SDS011;1840;48.892;15.312;2023-10-13T11:22:21;17.50;;;4.60;;
3647;SDS011;1840;48.892;15.312;2023-10-13T11:25:00;17.33;;;4.23;;
3647;SDS011;1840;48.892;15.312;2023-10-13T11:27:37;21.73;;;4.83;;
3647;SDS011;1840;48.892;15.312;2023-10-13T11:30:24;20.80;;;4.40;;
3647;SDS011;1840;48.892;15.312;2023-10-13T11:32:57;15.67;;;4.37;;
3647;SDS011;1840;48.892;15.312;2023-10-13T11:35:25;20.60;;;4.37;;
3647;SDS011;1840;48.892;15.312;2023-10-13T11:38:14;12.67;;;4.17;;
3647;SDS011;1840;48.892;15.312;2023-10-13T11:40:52;15.67;;;3.80;;
3647;SDS011;1840;48.892;15.312;2023-10-13T11:43:35;13.23;;;4.40;;
3647;SDS011;1840;48.892;15.312;2023-10-13T11:46:21;15.03;;;4.70;;
3647;SDS011;1840;48.892;15.312;2023-10-13T11:49:07;12.57;;;5.30;;
3647;SDS011;1840;48.892;15.312;2023-10-13T11:51:44;14.43;;;4.33;;
3647;SDS011;1840;48.892;15.312;2023-10-13T11:54:14;14.93;;;4.30;;
3647;SDS011;1840;48.892;15.312;2023-10-13T11:56:44;17.77;;;4.30;;
3647;SDS011;1840;48.892;15.312;2023-10-13T11:59:12;14.03;;;4.20;;
3647;SDS011;1840;48.892;15.312;2023-10-13T12:01:45;17.73;;;4.57;;
3647;SDS011;1840;48.892;15.312;2023-10-13T12:04:31;16.60;;;4.70;;
3647;SDS011;1840;48.892;15.312;2023-10-13T12:07:07;14.87;;;5.07;;
3647;SDS011;1840;48.892;15.312;2023-10-13T12:09:46;15.00;;;3.90;;
3647;SDS011;1840;48.892;15.312;2023-10-13T12:12:33;12.83;;;4.53;;
3647;SDS011;1840;48.892;15.312;2023-10-13T12:15:07;11.60;;;3.50;;
3647;SDS011;1840;48.892;15.312;2023-10-13T12:17:53;15.50;;;5.33;;
3647;SDS011;1840;48.892;15.312;2023-10-13T12:20:26;16.70;;;3.97;;
3647;SDS011;1840;48.892;15.312;2023-10-13T12:23:00;17.20;;;3.63;;
3647;SDS011;1840;48.892;15.312;2023-10-13T12:25:41;14.93;;;4.00;;
3647;SDS011;1840;48.892;15.312;2023-10-13T12:28:24;19.27;;;3.90;;
3647;SDS011;1840;48.892;15.312;2023-10-13T12:30:55;10.10;;;4.00;;
3647;SDS011;1840;48.892;15.312;2023-10-13T12:33:26;11.70;;;4.33;;
3647;SDS011;1840;48.892;15.312;2023-10-13T12:36:03;14.07;;;4.50;;
3647;SDS011;1840;48.892;15.312;2023-10-13T12:38:36;12.03;;;4.00;;
3647;SDS011;1840;48.892;15.312;2023-10-13T12:41:17;14.73;;;4.50;;
3647;SDS011;1840;48.892;15.312;2023-10-13T12:44:09;15.90;;;5.00;;
3647;SDS011;1840;48.892;15.312;2023-10-13T12:46:54;16.50;;;4.43;;
3647;SDS011;1840;48.892;15.312;2023-10-13T12:49:42;12.97;;;4.73;;
3647;SDS011;1840;48.892;15.312;2023-10-13T12:52:24;12.37;;;4.13;;
3647;SDS011;1840;48.892;15.312;2023-10-13T12:54:53;16.50;;;5.50;;
3647;SDS011;1840;48.892;15.312;2023-10-13T12:57:33;12.87;;;3.70;;
3647;SDS011;1840;48.892;15.312;2023-10-13T13:00:10;13.83;;;4.60;;
3647;SDS011;1840;48.892;15.312;2023-10-13T13:02:52;18.00;;;4.70;;
3647;SDS011;1840;48.892;15.312;2023-10-13T13:05:24;13.40;;;3.87;;
3647;SDS011;1840;48.892;15.312;2023-10-13T13:07:56;16.27;;;4.67;;
3647;SDS011;1840;48.892;15.312;2023-10-13T13:10:24;16.40;;;4.30;;
3647;SDS011;1840;48.892;15.312;2023-10-13T13:13:04;12.10;;;3.53;;
3647;SDS011;1840;48.892;15.312;2023-10-13T13:15:32;12.70;;;3.80;;
3647;SDS011;1840;48.892;15.312;2023-10-13T13:18:00;15.90;;;4.00;;
3647;SDS011;1840;48.892;15.312;2023-10-13T13:20:38;18.43;;;3.53;;
3647;SDS011;1840;48.892;15.312;2023-10-13T13:23:19;10.33;;;3.30;;
3647;SDS011;1840;48.892;15.312;2023-10-13T13:25:47;11.10;;;3.50;;
3647;SDS011;1840;48.892;15.312;2023-10-13T13:28:16;10.97;;;4.20;;
3647;SDS011;1840;48.892;15.312;2023-10-13T13:30:44;9.50;;;3.80;;
3647;SDS011;1840;48.892;15.312;2023-10-13T13:33:17;18.07;;;3.63;;
3647;SDS011;1840;48.892;15.312;2023-10-13T13:35:54;10.10;;;3.33;;
3647;SDS011;1840;48.892;15.312;2023-10-13T13:38:26;12.37;;;3.83;;
3647;SDS011;1840;48.892;15.312;2023-10-13T13:40:58;10.23;;;3.67;;
3647;SDS011;1840;48.892;15.312;2023-10-13T13:43:28;7.67;;;3.50;;
3647;SDS011;1840;48.892;15.312;2023-10-13T13:46:04;14.83;;;4.33;;
3647;SDS011;1840;48.892;15.312;2023-10-13T13:48:36;12.53;;;4.03;;
3647;SDS011;1840;48.892;15.312;2023-10-13T13:51:06;20.33;;;4.83;;
3647;SDS011;1840;48.892;15.312;2023-10-13T13:53:41;15.33;;;4.30;;
3647;SDS011;1840;48.892;15.312;2023-10-13T13:56:11;17.67;;;4.20;;
3647;SDS011;1840;48.892;15.312;2023-10-13T13:58:42;13.03;;;3.93;;
3647;SDS011;1840;48.892;15.312;2023-10-13T14:01:10;14.80;;;4.60;;
3647;SDS011;1840;48.892;15.312;2023-10-13T14:03:42;8.67;;;3.53;;
3647;SDS011;1840;48.892;15.312;2023-10-13T14:06:15;13.30;;;4.33;;
3647;SDS011;1840;48.892;15.312;2023-10-13T14:08:50;10.27;;;4.10;;
3647;SDS011;1840;48.892;15.312;2023-10-13T14:11:22;15.37;;;4.23;;
3647;SDS011;1840;48.892;15.312;2023-10-13T14:14:05;11.13;;;3.80;;
3647;SDS011;1840;48.892;15.312;2023-10-13T14:16:38;11.30;;;4.40;;
3647;SDS011;1840;48.892;15.312;2023-10-13T14:19:11;16.97;;;4.00;;
3647;SDS011;1840;48.892;15.312;2023-10-13T14:21:40;10.43;;;3.27;;
3647;SDS011;1840;48.892;15.312;2023-10-13T14:24:09;12.80;;;3.83;;
3647;SDS011;1840;48.892;15.312;2023-10-13T14:26:43;9.57;;;3.50;;
3647;SDS011;1840;48.892;15.312;2023-10-13T14:29:11;15.20;;;4.23;;
3647;SDS011;1840;48.892;15.312;2023-10-13T14:31:42;13.27;;;3.73;;
3647;SDS011;1840;48.892;15.312;2023-10-13T14:34:10;13.77;;;3.83;;
3647;SDS011;1840;48.892;15.312;2023-10-13T14:36:40;14.20;;;3.90;;
3647;SDS011;1840;48.892;15.312;2023-10-13T14:39:14;13.97;;;3.90;;
3647;SDS011;1840;48.892;15.312;2023-10-13T14:41:42;14.43;;;4.20;;
3647;SDS011;1840;48.892;15.312;2023-10-13T14:44:13;10.83;;;3.97;;
3647;SDS011;1840;48.892;15.312;2023-10-13T14:46:41;9.53;;;3.23;;
3647;SDS011;1840;48.892;15.312;2023-10-13T14:49:09;17.53;;;3.97;;
3647;SDS011;1840;48.892;15.312;2023-10-13T14:51:42;10.50;;;3.80;;
3647;SDS011;1840;48.892;15.312;2023-10-13T14:54:10;12.00;;;3.40;;
3647;SDS011;1840;48.892;15.312;2023-10-13T14:56:38;8.77;;;3.43;;
3647;SDS011;1840;48.892;15.312;2023-10-13T14:59:08;11.03;;;3.33;;
3647;SDS011;1840;48.892;15.312;2023-10-13T15:01:43;16.20;;;4.30;;
3647;SDS011;1840;48.892;15.312;2023-10-13T15:04:13;9.00;;;3.50;;
3647;SDS011;1840;48.892;15.312;2023-10-13T15:06:42;14.33;;;3.30;;
3647;SDS011;1840;48.892;15.312;2023-10-13T15:09:10;11.00;;;3.60;;
3647;SDS011;1840;48.892;15.312;2023-10-13T15:11:38;12.00;;;3.60;;
3647;SDS011;1840;48.892;15.312;2023-10-13T15:14:15;11.20;;;2.93;;
3647;SDS011;1840;48.892;15.312;2023-10-13T15:16:46;12.23;;;4.10;;
3647;SDS011;1840;48.892;15.312;2023-10-13T15:19:15;12.23;;;3.50;;
3647;SDS011;1840;48.892;15.312;2023-10-13T15:21:45;14.83;;;3.90;;
3647;SDS011;1840;48.892;15.312;2023-10-13T15:24:17;13.77;;;4.47;;
3647;SDS011;1840;48.892;15.312;2023-10-13T15:26:52;19.23;;;3.83;;
3647;SDS011;1840;48.892;15.312;2023-10-13T15:29:29;19.07;;;3.53;;
3647;SDS011;1840;48.892;15.312;2023-10-13T15:32:02;12.20;;;4.27;;
3647;SDS011;1840;48.892;15.312;2023-10-13T15:34:49;18.80;;;4.40;;
3647;SDS011;1840;48.892;15.312;2023-10-13T15:37:18;13.80;;;4.10;;
3647;SDS011;1840;48.892;15.312;2023-10-13T15:39:52;15.50;;;4.13;;